Time;durP1;ratioP1;P1;durP2;ratioP2;P2;SDS_P1;SDS_P2;PMS_P1;PMS_P2;Temp;Humidity;BMP_temperature;BMP_pressure;BME280_temperature;BME280_humidity;BME280_pressure;Samples;Min_cycle;Max_cycle;Signal;HPM_P1;HPM_P2
2022/10/25 00:01:48;;;;;;;27.15;6.72;;;;;;;;;;4966570;28;20050;-46
2022/10/25 00:04:15;;;;;;;29.27;7.22;;;;;;;;;;4967956;28;20495;-45
2022/10/25 00:06:40;;;;;;;33.67;7.35;;;;;;;;;;4969396;28;20177;-47
2022/10/25 00:09:06;;;;;;;24.55;6.00;;;;;;;;;;4968985;28;20114;-47
2022/10/25 00:11:32;;;;;;;28.08;6.70;;;;;;;;;;4966584;28;20479;-45
2022/10/25 00:14:01;;;;;;;33.40;6.18;;;;;;;;;;4967597;28;20033;-47
2022/10/25 00:16:29;;;;;;;18.60;6.38;;;;;;;;;;4967005;28;20029;-48
2022/10/25 00:18:54;;;;;;;33.78;7.55;;;;;;;;;;4965571;28;20026;-45
2022/10/25 00:21:20;;;;;;;32.53;6.88;;;;;;;;;;4969261;28;21192;-46
2022/10/25 00:23:46;;;;;;;23.15;7.20;;;;;;;;;;4967551;28;20026;-46
2022/10/25 00:26:12;;;;;;;29.27;6.20;;;;;;;;;;4968504;28;20039;-45
2022/10/25 00:28:38;;;;;;;24.50;5.82;;;;;;;;;;4965553;28;20151;-47
2022/10/25 00:31:11;;;;;;;31.42;6.85;;;;;;;;;;4968282;28;20038;-46
2022/10/25 00:33:37;;;;;;;32.97;6.75;;;;;;;;;;4968498;28;20070;-47
2022/10/25 00:36:08;;;;;;;32.40;6.97;;;;;;;;;;4969267;28;20030;-45
2022/10/25 00:38:34;;;;;;;27.50;6.07;;;;;;;;;;4967296;28;20037;-49
2022/10/25 00:40:59;;;;;;;23.77;6.82;;;;;;;;;;4969130;28;20110;-46
2022/10/25 00:43:34;;;;;;;24.38;6.18;;;;;;;;;;4966876;28;20121;-49
2022/10/25 00:46:30;;;;;;;26.33;6.43;;;;;;;;;;4968600;28;20449;-52
2022/10/25 00:48:55;;;;;;;24.50;6.20;;;;;;;;;;4958482;28;20537;-48
2022/10/25 00:51:26;;;;;;;25.13;5.95;;;;;;;;;;4968324;28;20035;-51
2022/10/25 00:53:51;;;;;;;24.75;6.28;;;;;;;;;;4965452;28;20022;-45
2022/10/25 00:56:24;;;;;;;20.52;6.43;;;;;;;;;;4969030;28;20023;-51
2022/10/25 00:58:54;;;;;;;22.85;6.13;;;;;;;;;;4967212;28;20107;-48
2022/10/25 01:01:20;;;;;;;31.30;6.90;;;;;;;;;;4967036;28;20035;-46
2022/10/25 01:03:50;;;;;;;28.75;6.05;;;;;;;;;;4970030;28;20480;-48
2022/10/25 01:06:24;;;;;;;26.55;5.97;;;;;;;;;;4968976;28;20041;-44
2022/10/25 01:08:51;;;;;;;25.30;6.28;;;;;;;;;;4967817;28;20121;-46
2022/10/25 01:11:18;;;;;;;19.30;6.07;;;;;;;;;;4968841;28;20039;-46
2022/10/25 01:13:44;;;;;;;24.38;5.20;;;;;;;;;;4966947;28;20031;-48
2022/10/25 01:16:33;;;;;;;27.00;6.32;;;;;;;;;;4967973;28;20045;-46
2022/10/25 01:19:26;;;;;;;33.78;5.82;;;;;;;;;;4968085;28;20082;-48
2022/10/25 01:22:01;;;;;;;26.95;7.15;;;;;;;;;;4967987;28;20051;-49
2022/10/25 01:24:50;;;;;;;34.85;7.95;;;;;;;;;;4968421;28;20041;-48
2022/10/25 01:27:46;;;;;;;29.00;6.53;;;;;;;;;;4964234;28;20142;-49
2022/10/25 01:30:20;;;;;;;22.70;6.70;;;;;;;;;;4964708;28;20032;-50
2022/10/25 01:33:04;;;;;;;26.25;6.22;;;;;;;;;;4965506;28;20038;-51
2022/10/25 01:35:40;;;;;;;25.23;6.50;;;;;;;;;;4966592;28;20435;-43
2022/10/25 01:38:28;;;;;;;24.95;6.50;;;;;;;;;;4969138;28;20042;-47
2022/10/25 01:41:11;;;;;;;23.15;5.72;;;;;;;;;;4967553;28;20027;-43
2022/10/25 01:44:00;;;;;;;32.88;6.60;;;;;;;;;;4967580;28;20063;-43
2022/10/25 01:46:35;;;;;;;33.17;6.95;;;;;;;;;;4964609;28;20047;-43
2022/10/25 01:49:09;;;;;;;32.15;6.75;;;;;;;;;;4968285;28;20086;-47
2022/10/25 01:51:35;;;;;;;30.15;6.60;;;;;;;;;;4967914;28;20082;-43
2022/10/25 01:54:01;;;;;;;25.67;6.35;;;;;;;;;;4966495;28;20384;-43
2022/10/25 01:56:30;;;;;;;31.92;5.82;;;;;;;;;;4967788;28;20022;-47
2022/10/25 01:59:23;;;;;;;25.13;6.35;;;;;;;;;;4966829;28;20119;-46
2022/10/25 02:02:00;;;;;;;27.90;6.47;;;;;;;;;;4969604;28;20066;-51
2022/10/25 02:04:43;;;;;;;22.65;6.10;;;;;;;;;;4968792;28;20035;-49
2022/10/25 02:07:32;;;;;;;21.20;6.40;;;;;;;;;;4971246;28;20070;-47
2022/10/25 02:10:08;;;;;;;26.58;6.55;;;;;;;;;;4967113;28;20023;-44
2022/10/25 02:12:52;;;;;;;25.50;5.60;;;;;;;;;;4968547;28;20062;-47
2022/10/25 02:15:37;;;;;;;27.52;6.25;;;;;;;;;;4971261;28;20040;-50
2022/10/25 02:18:08;;;;;;;28.80;6.15;;;;;;;;;;4968143;28;20131;-44
2022/10/25 02:20:34;;;;;;;25.52;5.80;;;;;;;;;;4968352;28;20060;-49
2022/10/25 02:23:03;;;;;;;31.65;6.22;;;;;;;;;;4970211;28;20042;-48
2022/10/25 02:25:32;;;;;;;21.63;6.40;;;;;;;;;;4968331;28;20059;-43
2022/10/25 02:27:59;;;;;;;27.95;6.68;;;;;;;;;;4970120;28;20073;-46
2022/10/25 02:30:24;;;;;;;33.22;7.47;;;;;;;;;;4971516;28;20538;-45
2022/10/25 02:32:50;;;;;;;22.42;6.28;;;;;;;;;;4970818;28;20118;-46
2022/10/25 02:35:17;;;;;;;24.45;6.05;;;;;;;;;;4969538;28;20042;-44
2022/10/25 02:37:43;;;;;;;23.83;6.03;;;;;;;;;;4966264;28;20093;-48
2022/10/25 02:40:09;;;;;;;28.00;7.18;;;;;;;;;;4970313;28;20027;-47
2022/10/25 02:42:34;;;;;;;30.80;6.32;;;;;;;;;;4969005;28;20038;-46
2022/10/25 02:45:00;;;;;;;25.50;6.43;;;;;;;;;;4971187;28;20132;-45
2022/10/25 02:47:26;;;;;;;26.73;6.60;;;;;;;;;;4968677;28;20127;-44
2022/10/25 02:49:51;;;;;;;26.60;6.97;;;;;;;;;;4969234;28;20030;-46
2022/10/25 02:52:16;;;;;;;31.70;6.70;;;;;;;;;;4969661;28;20043;-45
2022/10/25 02:54:42;;;;;;;30.42;6.72;;;;;;;;;;4971908;28;20034;-52
2022/10/25 02:57:07;;;;;;;27.20;6.00;;;;;;;;;;4969164;28;21766;-44
2022/10/25 02:59:33;;;;;;;27.13;6.25;;;;;;;;;;4970251;28;20035;-49
2022/10/25 03:01:58;;;;;;;20.35;5.15;;;;;;;;;;4969682;28;20101;-46
2022/10/25 03:04:23;;;;;;;20.98;5.28;;;;;;;;;;4969708;28;20097;-45
2022/10/25 03:06:49;;;;;;;25.52;6.20;;;;;;;;;;4970017;28;20122;-45
2022/10/25 03:09:14;;;;;;;25.08;6.25;;;;;;;;;;4969165;28;20061;-48
2022/10/25 03:11:39;;;;;;;27.40;5.68;;;;;;;;;;4968554;28;20062;-46
2022/10/25 03:14:05;;;;;;;21.30;6.13;;;;;;;;;;4970759;28;20031;-43
2022/10/25 03:16:30;;;;;;;29.27;7.00;;;;;;;;;;4970469;28;20706;-43
2022/10/25 03:18:57;;;;;;;30.63;5.88;;;;;;;;;;4970881;28;20034;-45
2022/10/25 03:21:23;;;;;;;21.33;6.45;;;;;;;;;;4968659;28;20058;-47
2022/10/25 03:23:48;;;;;;;24.50;6.20;;;;;;;;;;4968094;28;20074;-43
2022/10/25 03:26:13;;;;;;;30.48;6.30;;;;;;;;;;4969869;28;20100;-52
2022/10/25 03:28:39;;;;;;;26.83;6.65;;;;;;;;;;4970499;28;20091;-44
2022/10/25 03:31:10;;;;;;;31.73;6.32;;;;;;;;;;4968848;28;20051;-44
2022/10/25 03:33:35;;;;;;;20.52;5.70;;;;;;;;;;4970020;28;20043;-48
2022/10/25 03:36:01;;;;;;;19.25;6.53;;;;;;;;;;4969040;28;20041;-45
2022/10/25 03:38:26;;;;;;;27.70;6.03;;;;;;;;;;4968013;28;20134;-44
2022/10/25 03:40:52;;;;;;;23.85;6.55;;;;;;;;;;4969176;28;20045;-49
2022/10/25 03:43:17;;;;;;;30.75;6.63;;;;;;;;;;4969858;28;20047;-45
2022/10/25 03:45:43;;;;;;;19.73;6.57;;;;;;;;;;4969258;28;20046;-45
2022/10/25 03:48:08;;;;;;;29.65;7.47;;;;;;;;;;4969199;28;20039;-46
2022/10/25 03:50:35;;;;;;;33.60;6.45;;;;;;;;;;4969077;28;20023;-44
2022/10/25 03:53:00;;;;;;;23.75;6.25;;;;;;;;;;4968221;28;20062;-46
2022/10/25 03:55:26;;;;;;;27.38;6.95;;;;;;;;;;4970225;28;20074;-45
2022/10/25 03:57:51;;;;;;;22.10;6.85;;;;;;;;;;4967612;28;20054;-43
2022/10/25 04:00:17;;;;;;;24.83;6.10;;;;;;;;;;4966910;28;20546;-44
2022/10/25 04:02:42;;;;;;;24.35;6.45;;;;;;;;;;4966912;28;20089;-45
2022/10/25 04:05:08;;;;;;;27.15;6.80;;;;;;;;;;4969244;28;20041;-44
2022/10/25 04:07:33;;;;;;;24.90;6.15;;;;;;;;;;4968013;28;20111;-49
2022/10/25 04:09:58;;;;;;;30.58;7.07;;;;;;;;;;4968831;28;20031;-44
2022/10/25 04:12:24;;;;;;;21.67;6.50;;;;;;;;;;4968601;28;20043;-51
2022/10/25 04:14:49;;;;;;;31.45;7.50;;;;;;;;;;4967661;28;20237;-50
2022/10/25 04:17:15;;;;;;;23.77;6.88;;;;;;;;;;4968576;28;20059;-47
2022/10/25 04:19:40;;;;;;;21.30;6.20;;;;;;;;;;4968765;28;20122;-50
2022/10/25 04:22:06;;;;;;;27.02;6.55;;;;;;;;;;4967902;28;20054;-44
2022/10/25 04:24:31;;;;;;;23.33;6.65;;;;;;;;;;4966464;28;20030;-42
2022/10/25 04:26:56;;;;;;;18.92;6.22;;;;;;;;;;4968845;28;20046;-43
2022/10/25 04:29:22;;;;;;;23.83;5.85;;;;;;;;;;4966788;28;20023;-43
2022/10/25 04:31:47;;;;;;;33.92;6.68;;;;;;;;;;4964190;28;20117;-48
2022/10/25 04:34:13;;;;;;;26.33;6.88;;;;;;;;;;4968715;28;20094;-49
2022/10/25 04:36:38;;;;;;;26.80;6.28;;;;;;;;;;4965235;28;21103;-44
2022/10/25 04:39:04;;;;;;;23.60;5.85;;;;;;;;;;4966623;28;20057;-47
2022/10/25 04:41:30;;;;;;;20.15;6.22;;;;;;;;;;4966475;28;20101;-44
2022/10/25 04:43:55;;;;;;;27.10;6.32;;;;;;;;;;4962648;28;20474;-47
2022/10/25 04:46:21;;;;;;;29.65;6.82;;;;;;;;;;4964501;28;20051;-43
2022/10/25 04:48:46;;;;;;;30.08;6.70;;;;;;;;;;4966443;28;20026;-47
2022/10/25 04:51:12;;;;;;;29.30;7.32;;;;;;;;;;4965782;28;20089;-50
2022/10/25 04:53:38;;;;;;;28.30;6.53;;;;;;;;;;4967871;28;20042;-48
2022/10/25 04:56:09;;;;;;;27.23;7.03;;;;;;;;;;4967863;28;20050;-44
2022/10/25 04:58:35;;;;;;;22.40;6.65;;;;;;;;;;4967819;28;20035;-49
2022/10/25 05:01:05;;;;;;;29.63;6.70;;;;;;;;;;4966154;28;20830;-48
2022/10/25 05:03:31;;;;;;;24.80;8.02;;;;;;;;;;4964768;28;20093;-47
2022/10/25 05:06:11;;;;;;;26.30;7.28;;;;;;;;;;4965819;28;20042;-46
2022/10/25 05:08:42;;;;;;;27.75;6.78;;;;;;;;;;4967517;28;20784;-44
2022/10/25 05:11:09;;;;;;;26.48;7.65;;;;;;;;;;4967891;28;20039;-44
2022/10/25 05:13:37;;;;;;;26.88;6.50;;;;;;;;;;4967625;28;20046;-46
2022/10/25 05:16:03;;;;;;;23.80;7.03;;;;;;;;;;4968917;28;20030;-43
2022/10/25 05:18:33;;;;;;;26.23;6.40;;;;;;;;;;4967583;28;20039;-42
2022/10/25 05:21:02;;;;;;;21.13;6.47;;;;;;;;;;4966956;28;20431;-49
2022/10/25 05:23:29;;;;;;;33.67;8.02;;;;;;;;;;4964031;28;20496;-46
2022/10/25 05:26:06;;;;;;;23.73;6.72;;;;;;;;;;4968603;28;20037;-46
2022/10/25 05:28:32;;;;;;;29.67;7.05;;;;;;;;;;4965463;28;20042;-50
2022/10/25 05:31:02;;;;;;;21.00;7.00;;;;;;;;;;4968734;28;20089;-47
2022/10/25 05:33:27;;;;;;;23.63;6.88;;;;;;;;;;4964577;28;20455;-45
2022/10/25 05:35:52;;;;;;;19.25;7.40;;;;;;;;;;4970695;28;20038;-44
2022/10/25 05:38:18;;;;;;;24.60;8.05;;;;;;;;;;4968997;28;20045;-43
2022/10/25 05:40:51;;;;;;;29.00;6.60;;;;;;;;;;4972270;28;20066;-45
2022/10/25 05:43:17;;;;;;;31.13;7.25;;;;;;;;;;4969543;28;20114;-43
2022/10/25 05:45:42;;;;;;;27.23;6.93;;;;;;;;;;4970639;28;20049;-46
2022/10/25 05:48:07;;;;;;;23.58;6.78;;;;;;;;;;4967398;28;20058;-48
2022/10/25 05:50:33;;;;;;;24.42;7.03;;;;;;;;;;4971556;28;20040;-46
2022/10/25 05:52:58;;;;;;;25.63;6.25;;;;;;;;;;4971987;28;20038;-52
2022/10/25 05:55:24;;;;;;;27.42;7.30;;;;;;;;;;4971449;28;20455;-46
2022/10/25 05:57:50;;;;;;;27.85;6.45;;;;;;;;;;4970951;28;20039;-43
2022/10/25 06:00:16;;;;;;;29.00;6.68;;;;;;;;;;4971258;28;20041;-46
2022/10/25 06:02:41;;;;;;;25.77;7.07;;;;;;;;;;4969892;28;20046;-45
2022/10/25 06:05:07;;;;;;;23.80;6.45;;;;;;;;;;4968156;28;20058;-46
2022/10/25 06:07:32;;;;;;;33.33;6.78;;;;;;;;;;4970057;28;20039;-50
2022/10/25 06:09:57;;;;;;;29.13;6.82;;;;;;;;;;4971127;28;20022;-44
2022/10/25 06:12:23;;;;;;;22.35;7.22;;;;;;;;;;4969581;28;20426;-43
2022/10/25 06:14:48;;;;;;;30.95;8.65;;;;;;;;;;4970845;28;20023;-48
2022/10/25 06:17:13;;;;;;;27.05;7.53;;;;;;;;;;4971306;28;22100;-44
2022/10/25 06:19:39;;;;;;;29.95;7.25;;;;;;;;;;4971490;28;20089;-46
2022/10/25 06:22:04;;;;;;;27.45;7.10;;;;;;;;;;4969408;28;20074;-43
2022/10/25 06:24:29;;;;;;;27.83;6.15;;;;;;;;;;4970077;28;20502;-46
2022/10/25 06:26:55;;;;;;;21.00;6.50;;;;;;;;;;4968517;28;20105;-47
2022/10/25 06:29:20;;;;;;;30.02;7.13;;;;;;;;;;4971547;28;20476;-44
2022/10/25 06:31:45;;;;;;;17.75;6.13;;;;;;;;;;4970032;28;20380;-44
2022/10/25 06:34:11;;;;;;;26.42;5.85;;;;;;;;;;4969466;28;20033;-44
2022/10/25 06:36:36;;;;;;;30.00;7.40;;;;;;;;;;4970849;28;20034;-46
2022/10/25 06:39:01;;;;;;;34.15;8.02;;;;;;;;;;4971428;28;20426;-47
2022/10/25 06:41:27;;;;;;;27.65;6.95;;;;;;;;;;4968425;28;20035;-47
2022/10/25 06:43:54;;;;;;;21.42;6.88;;;;;;;;;;4970406;28;20488;-44
2022/10/25 06:46:21;;;;;;;24.95;6.75;;;;;;;;;;4966284;28;20042;-42
2022/10/25 06:48:48;;;;;;;23.48;6.82;;;;;;;;;;4968377;28;20039;-45
2022/10/25 06:51:14;;;;;;;23.85;7.13;;;;;;;;;;4970189;28;20031;-46
2022/10/25 06:53:40;;;;;;;28.73;7.60;;;;;;;;;;4967559;28;20049;-48
2022/10/25 06:56:08;;;;;;;23.88;6.78;;;;;;;;;;4970029;28;20468;-49
2022/10/25 06:58:34;;;;;;;16.90;5.82;;;;;;;;;;4970064;28;20038;-45
2022/10/25 07:01:01;;;;;;;21.98;7.00;;;;;;;;;;4969764;28;20070;-46
2022/10/25 07:03:30;;;;;;;28.90;6.80;;;;;;;;;;4969917;28;20102;-44
2022/10/25 07:05:59;;;;;;;30.05;6.63;;;;;;;;;;4969653;28;20029;-43
2022/10/25 07:08:24;;;;;;;22.10;5.82;;;;;;;;;;4970444;28;20129;-49
2022/10/25 07:10:54;;;;;;;15.70;5.93;;;;;;;;;;4968529;28;20053;-46
2022/10/25 07:13:20;;;;;;;28.60;6.65;;;;;;;;;;4966326;28;20047;-49
2022/10/25 07:15:45;;;;;;;26.77;6.97;;;;;;;;;;4969926;28;20377;-49
2022/10/25 07:18:11;;;;;;;27.30;6.50;;;;;;;;;;4969088;28;20503;-49
2022/10/25 07:20:36;;;;;;;20.15;5.85;;;;;;;;;;4970464;28;20636;-48
2022/10/25 07:23:01;;;;;;;21.50;6.40;;;;;;;;;;4969348;28;20081;-49
2022/10/25 07:25:27;;;;;;;28.70;6.75;;;;;;;;;;4969762;28;20030;-51
2022/10/25 07:27:52;;;;;;;26.23;6.03;;;;;;;;;;4968571;28;20376;-51
2022/10/25 07:30:17;;;;;;;19.92;5.82;;;;;;;;;;4970159;28;20035;-45
2022/10/25 07:32:43;;;;;;;19.88;6.50;;;;;;;;;;4969727;28;20039;-50
2022/10/25 07:35:08;;;;;;;25.98;7.05;;;;;;;;;;4968693;28;20085;-44
2022/10/25 07:37:33;;;;;;;23.63;6.57;;;;;;;;;;4968306;28;20053;-49
2022/10/25 07:39:59;;;;;;;16.98;5.82;;;;;;;;;;4969678;28;20459;-49
2022/10/25 07:42:24;;;;;;;28.98;6.68;;;;;;;;;;4968326;28;20542;-50
2022/10/25 07:44:49;;;;;;;22.75;6.68;;;;;;;;;;4966751;28;20075;-49
2022/10/25 07:47:15;;;;;;;22.90;6.15;;;;;;;;;;4969194;28;20043;-48
2022/10/25 07:49:40;;;;;;;24.13;5.97;;;;;;;;;;4970175;28;20037;-51
2022/10/25 07:52:06;;;;;;;26.23;6.82;;;;;;;;;;4969185;28;20050;-49
2022/10/25 07:54:31;;;;;;;22.20;5.72;;;;;;;;;;4968430;28;20089;-48
2022/10/25 07:56:56;;;;;;;22.65;6.35;;;;;;;;;;4967955;28;20074;-48
2022/10/25 07:59:22;;;;;;;20.98;5.93;;;;;;;;;;4967240;28;20377;-48
2022/10/25 08:01:47;;;;;;;20.50;6.13;;;;;;;;;;4968413;28;20057;-47
2022/10/25 08:04:13;;;;;;;19.38;5.40;;;;;;;;;;4968366;28;20050;-44
2022/10/25 08:06:38;;;;;;;22.27;6.18;;;;;;;;;;4967805;28;20102;-43
2022/10/25 08:09:03;;;;;;;16.50;5.18;;;;;;;;;;4968365;28;20042;-47
2022/10/25 08:11:29;;;;;;;21.73;5.45;;;;;;;;;;4967276;28;20029;-47
2022/10/25 08:13:54;;;;;;;29.40;6.60;;;;;;;;;;4968068;28;20058;-46
2022/10/25 08:16:20;;;;;;;21.70;5.90;;;;;;;;;;4967765;28;20031;-50
2022/10/25 08:18:45;;;;;;;30.77;5.53;;;;;;;;;;4967496;28;20042;-51
2022/10/25 08:21:11;;;;;;;23.42;5.45;;;;;;;;;;4967340;28;20504;-49
2022/10/25 08:23:36;;;;;;;25.20;5.47;;;;;;;;;;4966463;28;20791;-49
2022/10/25 08:26:02;;;;;;;22.70;5.55;;;;;;;;;;4969262;28;20038;-52
2022/10/25 08:28:29;;;;;;;18.77;5.32;;;;;;;;;;4968020;28;20046;-47
2022/10/25 08:30:55;;;;;;;18.02;4.93;;;;;;;;;;4964546;28;20054;-52
2022/10/25 08:33:20;;;;;;;28.08;5.63;;;;;;;;;;4968044;28;20089;-49
2022/10/25 08:35:46;;;;;;;21.50;5.00;;;;;;;;;;4969540;28;20037;-51
2022/10/25 08:38:11;;;;;;;18.70;5.53;;;;;;;;;;4969879;28;20039;-49
2022/10/25 08:40:45;;;;;;;23.48;5.65;;;;;;;;;;4965939;28;20066;-49
2022/10/25 08:43:38;;;;;;;23.60;5.20;;;;;;;;;;4966995;28;20069;-49
2022/10/25 08:46:12;;;;;;;20.02;5.88;;;;;;;;;;4961940;28;20961;-49
2022/10/25 08:48:43;;;;;;;25.30;6.25;;;;;;;;;;4964052;28;21747;-47
2022/10/25 08:51:26;;;;;;;16.25;4.90;;;;;;;;;;4967197;28;20090;-46
2022/10/25 08:53:55;;;;;;;15.95;5.53;;;;;;;;;;4969826;28;20065;-50
2022/10/25 08:56:22;;;;;;;21.48;5.35;;;;;;;;;;4964859;28;20122;-51
2022/10/25 08:58:59;;;;;;;23.02;5.05;;;;;;;;;;4966458;28;20035;-47
2022/10/25 09:01:50;;;;;;;20.63;4.78;;;;;;;;;;4965171;28;20026;-51
2022/10/25 09:04:16;;;;;;;25.27;5.60;;;;;;;;;;4968655;28;20089;-52
2022/10/25 09:07:02;;;;;;;19.58;6.18;;;;;;;;;;4968163;28;20051;-46
2022/10/25 09:09:44;;;;;;;16.35;4.80;;;;;;;;;;4966884;28;20033;-44
2022/10/25 09:12:27;;;;;;;22.92;4.93;;;;;;;;;;4966657;28;20412;-44
2022/10/25 09:15:10;;;;;;;29.50;5.72;;;;;;;;;;4967605;28;20519;-49
2022/10/25 09:17:49;;;;;;;22.55;5.30;;;;;;;;;;4967869;28;20046;-52
2022/10/25 09:20:21;;;;;;;22.13;4.65;;;;;;;;;;4965628;28;20064;-51
2022/10/25 09:22:52;;;;;;;25.55;5.03;;;;;;;;;;4967793;28;20043;-49
2022/10/25 09:25:24;;;;;;;27.77;5.03;;;;;;;;;;4967324;28;20534;-50
2022/10/25 09:27:59;;;;;;;19.02;4.25;;;;;;;;;;4968058;28;20039;-49
2022/10/25 09:30:26;;;;;;;23.58;4.72;;;;;;;;;;4967042;28;20050;-51
2022/10/25 09:33:00;;;;;;;25.60;5.72;;;;;;;;;;4965102;28;20043;-52
2022/10/25 09:35:47;;;;;;;28.23;5.25;;;;;;;;;;4966975;28;20119;-48
2022/10/25 09:38:24;;;;;;;11.98;4.22;;;;;;;;;;4967350;28;20151;-49
2022/10/25 09:41:25;;;;;;;24.38;5.22;;;;;;;;;;4967981;28;20026;-50
2022/10/25 09:44:02;;;;;;;25.10;5.18;;;;;;;;;;4965125;28;20397;-51
2022/10/25 09:46:36;;;;;;;27.08;5.63;;;;;;;;;;4966212;28;20054;-49
2022/10/25 09:49:16;;;;;;;23.00;5.68;;;;;;;;;;4966850;28;20372;-50
2022/10/25 09:51:44;;;;;;;26.35;5.70;;;;;;;;;;4965846;28;20407;-46
2022/10/25 09:54:17;;;;;;;25.98;5.65;;;;;;;;;;4965028;28;20510;-52
2022/10/25 09:56:43;;;;;;;20.95;5.20;;;;;;;;;;4965527;28;20043;-47
2022/10/25 09:59:13;;;;;;;24.73;5.72;;;;;;;;;;4967012;28;20050;-50
2022/10/25 10:01:40;;;;;;;24.48;5.80;;;;;;;;;;4968197;28;20779;-44
2022/10/25 10:04:23;;;;;;;22.30;5.63;;;;;;;;;;4967456;28;20484;-47
2022/10/25 10:06:51;;;;;;;37.67;6.68;;;;;;;;;;4963925;28;20063;-49
2022/10/25 10:09:17;;;;;;;25.02;5.97;;;;;;;;;;4967723;28;20039;-46
2022/10/25 10:11:46;;;;;;;21.40;5.80;;;;;;;;;;4966651;28;20070;-49
2022/10/25 10:14:30;;;;;;;19.52;5.60;;;;;;;;;;4966092;28;20136;-50
2022/10/25 10:16:56;;;;;;;27.35;6.60;;;;;;;;;;4964323;28;20082;-49
2022/10/25 10:19:23;;;;;;;22.88;5.43;;;;;;;;;;4979414;28;20395;-47
2022/10/25 10:21:52;;;;;;;33.20;6.47;;;;;;;;;;4968872;28;20047;-52
2022/10/25 10:24:31;;;;;;;24.27;6.20;;;;;;;;;;4969173;28;20069;-49
2022/10/25 10:26:59;;;;;;;26.92;6.97;;;;;;;;;;4967370;28;20039;-49
2022/10/25 10:29:30;;;;;;;24.52;5.60;;;;;;;;;;4971619;28;20022;-48
2022/10/25 10:32:00;;;;;;;27.85;6.72;;;;;;;;;;4970727;28;20043;-49
2022/10/25 10:34:29;;;;;;;19.27;6.25;;;;;;;;;;4969988;28;20404;-47
2022/10/25 10:37:19;;;;;;;34.53;6.25;;;;;;;;;;4970199;28;20038;-44
2022/10/25 10:39:55;;;;;;;28.85;6.30;;;;;;;;;;4966579;28;20094;-52
2022/10/25 10:42:23;;;;;;;24.20;6.05;;;;;;;;;;4967121;28;20035;-47
2022/10/25 10:45:06;;;;;;;28.40;6.72;;;;;;;;;;4969347;28;20106;-46
2022/10/25 10:47:48;;;;;;;26.80;6.53;;;;;;;;;;4969172;28;20078;-50
2022/10/25 10:50:23;;;;;;;31.90;7.57;;;;;;;;;;4971646;28;20035;-47
2022/10/25 10:52:54;;;;;;;23.85;5.97;;;;;;;;;;4967953;28;20043;-49
2022/10/25 10:55:30;;;;;;;27.40;6.57;;;;;;;;;;4971278;28;20033;-45
2022/10/25 10:58:01;;;;;;;21.50;6.10;;;;;;;;;;4969942;28;20121;-49
2022/10/25 11:00:28;;;;;;;28.60;6.37;;;;;;;;;;4969715;28;20030;-46
2022/10/25 11:02:54;;;;;;;38.92;6.45;;;;;;;;;;4968244;28;20461;-49
2022/10/25 11:05:30;;;;;;;32.17;7.05;;;;;;;;;;4968550;28;20169;-49
2022/10/25 11:07:56;;;;;;;31.58;6.45;;;;;;;;;;4967471;28;20447;-47
2022/10/25 11:10:25;;;;;;;28.85;6.47;;;;;;;;;;4968001;28;20055;-47
2022/10/25 11:13:24;;;;;;;26.77;6.75;;;;;;;;;;4968202;28;20518;-47
2022/10/25 11:16:10;;;;;;;28.35;7.00;;;;;;;;;;4960060;28;21095;-47
2022/10/25 11:19:03;;;;;;;20.20;6.47;;;;;;;;;;4956222;28;20055;-45
2022/10/25 11:21:41;;;;;;;28.75;6.53;;;;;;;;;;4949861;28;20122;-46
2022/10/25 11:24:37;;;;;;;29.50;6.10;;;;;;;;;;4958419;28;20579;-46
2022/10/25 11:27:08;;;;;;;29.48;6.60;;;;;;;;;;4953449;28;20058;-43
2022/10/25 11:30:01;;;;;;;27.42;5.95;;;;;;;;;;4951207;28;20027;-52
2022/10/25 11:32:39;;;;;;;21.15;5.30;;;;;;;;;;4956441;28;20039;-45
2022/10/25 11:35:04;;;;;;;25.30;5.88;;;;;;;;;;4958551;28;20482;-47
2022/10/25 11:38:01;;;;;;;20.00;4.78;;;;;;;;;;4957130;28;20035;-46
2022/10/25 11:40:36;;;;;;;21.65;4.97;;;;;;;;;;4960464;28;20035;-49
2022/10/25 11:43:17;;;;;;;25.13;5.05;;;;;;;;;;4956374;28;20047;-49
2022/10/25 11:45:49;;;;;;;23.85;5.00;;;;;;;;;;4949841;28;20051;-47
2022/10/25 11:48:33;;;;;;;19.50;5.03;;;;;;;;;;4956346;28;20130;-48
2022/10/25 11:51:17;;;;;;;35.33;6.13;;;;;;;;;;4959443;28;20526;-47
2022/10/25 11:54:03;;;;;;;29.63;5.82;;;;;;;;;;4969486;28;20035;-45
2022/10/25 11:56:40;;;;;;;29.15;5.60;;;;;;;;;;4968814;28;20031;-44
2022/10/25 11:59:27;;;;;;;25.52;5.40;;;;;;;;;;4968241;28;20027;-45
2022/10/25 12:02:21;;;;;;;22.13;5.38;;;;;;;;;;4968135;28;20047;-46
2022/10/25 12:04:46;;;;;;;20.83;5.05;;;;;;;;;;4968909;28;20037;-47
2022/10/25 12:07:17;;;;;;;18.85;5.00;;;;;;;;;;4968401;28;20054;-44
2022/10/25 12:10:40;;;;;;;25.42;5.63;;;;;;;;;;4970050;28;20056;-48
2022/10/25 12:13:20;;;;;;;23.75;5.13;;;;;;;;;;4927430;29;20567;-49
2022/10/25 12:15:48;;;;;;;25.35;5.40;;;;;;;;;;4935960;29;20039;-48
2022/10/25 12:18:18;;;;;;;25.63;6.15;;;;;;;;;;4935330;29;20039;-49
2022/10/25 12:20:48;;;;;;;21.70;5.68;;;;;;;;;;4938634;29;20511;-50
2022/10/25 12:23:17;;;;;;;18.40;5.20;;;;;;;;;;4940232;29;20425;-51
2022/10/25 12:25:47;;;;;;;18.20;4.63;;;;;;;;;;4935362;29;20057;-44
2022/10/25 12:28:30;;;;;;;26.95;5.28;;;;;;;;;;4935283;29;20048;-46
2022/10/25 12:31:01;;;;;;;21.23;5.10;;;;;;;;;;4935535;29;20050;-46
2022/10/25 12:33:45;;;;;;;20.35;6.13;;;;;;;;;;4940265;29;20504;-45
2022/10/25 12:36:22;;;;;;;22.13;6.07;;;;;;;;;;4936066;29;20043;-47
2022/10/25 12:38:47;;;;;;;24.45;6.15;;;;;;;;;;4937232;29;20047;-47
2022/10/25 12:41:25;;;;;;;23.08;6.22;;;;;;;;;;4937754;29;20072;-44
2022/10/25 12:44:12;;;;;;;24.33;5.65;;;;;;;;;;4951950;28;20538;-46
2022/10/25 12:46:59;;;;;;;30.73;6.75;;;;;;;;;;4965208;28;20030;-50
2022/10/25 12:49:35;;;;;;;21.85;5.25;;;;;;;;;;4969193;28;20141;-49
2022/10/25 12:52:22;;;;;;;21.17;5.05;;;;;;;;;;4967021;28;20069;-46
2022/10/25 12:55:25;;;;;;;25.10;5.60;;;;;;;;;;4965900;28;20507;-50
2022/10/25 12:58:05;;;;;;;33.05;5.47;;;;;;;;;;4968312;28;20070;-46
2022/10/25 13:00:40;;;;;;;26.67;5.07;;;;;;;;;;4969131;28;20035;-44
2022/10/25 13:03:17;;;;;;;21.52;5.43;;;;;;;;;;4965486;28;20058;-51
2022/10/25 13:06:22;;;;;;;16.45;4.78;;;;;;;;;;4968294;28;20042;-48
2022/10/25 13:08:48;;;;;;;15.20;4.85;;;;;;;;;;4967435;28;20432;-51
2022/10/25 13:11:13;;;;;;;16.27;4.50;;;;;;;;;;4967099;28;20035;-47
2022/10/25 13:13:47;;;;;;;22.95;5.57;;;;;;;;;;4967704;28;20530;-48
2022/10/25 13:16:24;;;;;;;22.90;4.72;;;;;;;;;;4967988;28;20034;-49
2022/10/25 13:19:12;;;;;;;24.10;5.18;;;;;;;;;;4967821;28;20055;-51
2022/10/25 13:21:52;;;;;;;16.38;5.05;;;;;;;;;;4967520;28;20361;-49
2022/10/25 13:24:53;;;;;;;24.52;5.05;;;;;;;;;;4966234;28;20031;-50
2022/10/25 13:27:22;;;;;;;11.68;4.20;;;;;;;;;;4945488;29;20106;-46
2022/10/25 13:30:05;;;;;;;24.45;5.13;;;;;;;;;;4947022;28;20043;-49
2022/10/25 13:32:33;;;;;;;20.20;4.93;;;;;;;;;;4946513;29;20036;-44
2022/10/25 13:35:01;;;;;;;16.98;3.88;;;;;;;;;;4944245;29;20067;-45
2022/10/25 13:37:29;;;;;;;23.02;5.35;;;;;;;;;;4945268;28;20491;-49
2022/10/25 13:39:57;;;;;;;24.90;4.75;;;;;;;;;;4944420;28;20036;-47
2022/10/25 13:42:34;;;;;;;21.38;5.60;;;;;;;;;;4946148;28;20068;-46
2022/10/25 13:45:03;;;;;;;19.65;4.88;;;;;;;;;;4946338;29;20071;-45
2022/10/25 13:47:34;;;;;;;22.90;6.15;;;;;;;;;;4946048;29;20122;-50
2022/10/25 13:50:00;;;;;;;;;;;;;;;;;;4947726;29;20492;-45
2022/10/25 13:52:32;;;;;;;22.88;5.13;;;;;;;;;;4945576;28;19932;-49
2022/10/25 13:54:58;;;;;;;22.23;5.40;;;;;;;;;;4947896;28;20496;-50
2022/10/25 13:57:53;;;;;;;20.85;5.25;;;;;;;;;;4950316;29;20035;-47
2022/10/25 14:00:32;;;;;;;19.88;5.18;;;;;;;;;;4949921;28;20074;-50
2022/10/25 14:03:07;;;;;;;18.77;4.82;;;;;;;;;;4969500;28;20038;-51
2022/10/25 14:05:54;;;;;;;18.92;4.63;;;;;;;;;;4972561;28;20044;-47
2022/10/25 14:08:42;;;;;;;17.98;5.18;;;;;;;;;;4969836;28;20109;-48
2022/10/25 14:11:12;;;;;;;23.35;4.82;;;;;;;;;;4964639;28;20133;-50
2022/10/25 14:14:25;;;;;;;16.67;5.05;;;;;;;;;;4969819;28;20035;-51
2022/10/25 14:17:06;;;;;;;17.20;4.38;;;;;;;;;;4954602;28;20504;-48
2022/10/25 14:19:54;;;;;;;26.70;5.47;;;;;;;;;;4969451;28;20023;-48
2022/10/25 14:22:40;;;;;;;22.88;5.55;;;;;;;;;;4967734;28;20043;-45
2022/10/25 14:25:32;;;;;;;23.45;5.68;;;;;;;;;;4971117;28;20031;-49
2022/10/25 14:28:13;;;;;;;23.48;6.32;;;;;;;;;;4965539;28;20036;-49
2022/10/25 14:30:43;;;;;;;20.83;5.72;;;;;;;;;;4970371;28;20037;-46
2022/10/25 14:33:29;;;;;;;22.85;5.95;;;;;;;;;;4970247;28;20039;-46
2022/10/25 14:36:10;;;;;;;21.77;5.70;;;;;;;;;;4970126;28;20023;-47
2022/10/25 14:38:57;;;;;;;25.88;5.72;;;;;;;;;;4965626;28;20070;-52
2022/10/25 14:41:28;;;;;;;24.65;5.70;;;;;;;;;;4969101;28;20507;-50
2022/10/25 14:43:54;;;;;;;21.55;5.18;;;;;;;;;;4970117;28;20031;-47
2022/10/25 14:46:21;;;;;;;27.98;5.63;;;;;;;;;;4968773;28;20039;-45
2022/10/25 14:48:48;;;;;;;19.55;5.20;;;;;;;;;;4970494;28;20054;-50
2022/10/25 14:51:33;;;;;;;22.77;5.40;;;;;;;;;;4970271;28;20035;-49
2022/10/25 14:54:04;;;;;;;18.60;5.13;;;;;;;;;;4969624;28;20808;-50
2022/10/25 14:56:44;;;;;;;18.63;5.68;;;;;;;;;;4967435;28;20031;-52
2022/10/25 14:59:26;;;;;;;20.42;4.88;;;;;;;;;;4968969;28;20035;-52